createdAt,value
2019-02-05T00:03:48.335Z,8.23
2019-02-05T00:07:55.140Z,8.47
2019-02-05T00:12:02.068Z,8.87
2019-02-05T00:16:08.936Z,8.93
2019-02-05T00:20:15.826Z,9.30
2019-02-05T00:24:22.665Z,8.83
2019-02-05T00:28:29.528Z,8.47
2019-02-05T00:32:36.582Z,8.27
2019-02-05T00:36:43.789Z,9.40
2019-02-05T00:40:50.753Z,9.80
2019-02-05T00:44:57.563Z,9.87
2019-02-05T00:49:04.523Z,9.90
2019-02-05T00:53:11.483Z,10.60
2019-02-05T00:57:18.758Z,9.60
2019-02-05T01:01:25.604Z,10.63
2019-02-05T01:05:33.485Z,10.30
2019-02-05T01:09:40.398Z,9.37
2019-02-05T01:13:47.247Z,10.30
2019-02-05T01:17:55.210Z,9.23
2019-02-05T01:22:02.187Z,10.03
2019-02-05T01:26:09.067Z,10.17
2019-02-05T01:30:20.345Z,9.90
2019-02-05T01:34:27.185Z,9.43
2019-02-05T01:38:34.209Z,10.20
2019-02-05T01:42:41.000Z,9.60
2019-02-05T01:46:47.870Z,10.10
2019-02-05T01:50:54.670Z,10.37
2019-02-05T01:55:01.461Z,11.03
2019-02-05T01:59:08.337Z,10.87
2019-02-05T02:03:15.155Z,13.07
2019-02-05T02:07:25.242Z,11.57
2019-02-05T02:11:34.328Z,12.67
2019-02-05T02:15:41.169Z,11.17
2019-02-05T02:19:48.099Z,12.33
2019-02-05T02:23:55.066Z,11.03
2019-02-05T02:28:02.179Z,11.33
2019-02-05T02:32:09.051Z,11.20
2019-02-05T02:36:15.992Z,12.40
2019-02-05T02:40:23.006Z,11.53
2019-02-05T02:44:30.061Z,12.33
2019-02-05T02:48:37.169Z,12.00
2019-02-05T02:52:44.131Z,11.37
2019-02-05T02:56:51.000Z,12.53
2019-02-05T03:00:58.015Z,11.50
2019-02-05T03:05:07.456Z,12.50
2019-02-05T03:09:14.420Z,11.77
2019-02-05T03:13:21.337Z,12.83
2019-02-05T03:17:28.298Z,12.13
2019-02-05T03:21:35.213Z,12.13
2019-02-05T03:25:42.925Z,12.27
2019-02-05T03:29:49.784Z,13.13
2019-02-05T03:33:56.629Z,13.37
2019-02-05T03:38:03.602Z,13.70
2019-02-05T03:42:10.577Z,13.83
2019-02-05T03:46:18.859Z,13.47
2019-02-05T03:50:26.899Z,13.53
2019-02-05T03:55:28.124Z,13.63
2019-02-05T03:59:58.190Z,13.00
2019-02-05T04:05:09.391Z,14.13
2019-02-05T04:10:07.991Z,13.20
2019-02-05T04:14:37.612Z,13.77
2019-02-05T04:19:53.777Z,14.23
2019-02-05T04:24:58.298Z,13.53
2019-02-05T04:30:06.072Z,13.57
2019-02-05T04:35:21.475Z,14.70
2019-02-05T04:40:32.065Z,13.37
2019-02-05T04:45:34.218Z,13.40
2019-02-05T04:50:23.906Z,13.33
2019-02-05T04:55:18.796Z,13.47
2019-02-05T05:00:10.733Z,13.43
2019-02-05T05:04:59.015Z,14.60
2019-02-05T05:10:01.506Z,14.23
2019-02-05T05:14:08.550Z,14.93
2019-02-05T05:18:15.724Z,14.80
2019-02-05T05:22:22.675Z,14.27
2019-02-05T05:26:29.841Z,14.97
2019-02-05T05:30:37.564Z,14.70
2019-02-05T05:34:44.656Z,14.83
2019-02-05T05:38:51.548Z,14.60
2019-02-05T05:42:58.847Z,14.70
2019-02-05T05:47:05.799Z,14.43
2019-02-05T05:51:13.257Z,14.60
2019-02-05T05:55:21.532Z,14.93
2019-02-05T05:59:28.538Z,15.47
2019-02-05T06:03:35.561Z,16.23
2019-02-05T06:07:42.517Z,15.43
2019-02-05T06:11:49.644Z,15.70
2019-02-05T06:15:56.609Z,16.27
2019-02-05T06:20:03.502Z,15.50
2019-02-05T06:24:11.306Z,32.17
2019-02-05T06:28:18.235Z,15.70
2019-02-05T06:32:25.173Z,16.30
2019-02-05T06:36:32.098Z,16.93
2019-02-05T06:40:39.434Z,16.67
2019-02-05T06:44:46.601Z,16.03
2019-02-05T06:48:53.799Z,17.67
2019-02-05T06:53:01.857Z,17.07
2019-02-05T06:57:08.895Z,16.10
2019-02-05T07:01:15.888Z,16.37
2019-02-05T07:05:22.746Z,17.30
2019-02-05T07:09:30.070Z,19.20
2019-02-05T07:13:36.960Z,17.47
2019-02-05T07:17:49.975Z,17.40
2019-02-05T07:21:53.972Z,16.77
2019-02-05T07:26:00.847Z,17.03
2019-02-05T07:30:12.403Z,16.87
2019-02-05T07:34:21.307Z,18.83
2019-02-05T07:38:28.561Z,18.90
2019-02-05T07:42:36.103Z,17.17
2019-02-05T07:46:43.119Z,19.17
2019-02-05T07:50:50.157Z,17.37
2019-02-05T07:54:57.171Z,18.53
2019-02-05T07:59:10.415Z,18.07
2019-02-05T08:03:12.731Z,18.60
2019-02-05T08:07:19.584Z,18.77
2019-02-05T08:11:26.411Z,17.53
2019-02-05T08:15:34.655Z,18.43
2019-02-05T08:19:41.919Z,19.27
2019-02-05T08:23:50.318Z,16.33
2019-02-05T08:27:57.243Z,17.03
2019-02-05T08:32:04.061Z,17.90
2019-02-05T08:36:10.981Z,18.53
2019-02-05T08:40:19.890Z,16.70
2019-02-05T08:44:29.323Z,16.33
2019-02-05T08:48:36.252Z,16.93
2019-02-05T08:52:43.382Z,16.57
2019-02-05T08:56:50.299Z,17.20
2019-02-05T09:00:57.494Z,16.77
2019-02-05T09:05:05.100Z,17.70
2019-02-05T09:09:11.989Z,17.67
2019-02-05T09:13:18.879Z,15.87
2019-02-05T09:17:25.765Z,16.33
2019-02-05T09:21:32.575Z,16.60
2019-02-05T09:25:39.469Z,17.77
2019-02-05T09:29:46.435Z,19.30
2019-02-05T09:33:56.258Z,20.57
2019-02-05T09:38:03.051Z,18.83
2019-02-05T09:42:09.904Z,18.53
2019-02-05T09:46:16.881Z,19.97
2019-02-05T09:50:23.857Z,18.37
2019-02-05T09:54:30.855Z,21.07
2019-02-05T09:58:37.767Z,18.30
2019-02-05T10:02:44.751Z,16.60
2019-02-05T10:06:52.276Z,17.87
2019-02-05T10:10:59.279Z,17.47
2019-02-05T10:15:10.474Z,20.67
2019-02-05T10:19:17.371Z,20.00
2019-02-05T10:23:31.031Z,23.33
2019-02-05T10:27:38.030Z,18.77
2019-02-05T10:31:44.975Z,18.83
2019-02-05T10:35:52.460Z,18.13
2019-02-05T10:39:59.504Z,21.10
2019-02-05T10:44:06.828Z,20.07
2019-02-05T10:48:13.704Z,19.70
2019-02-05T10:52:20.606Z,19.93
2019-02-05T10:56:27.622Z,19.57
2019-02-05T11:00:34.797Z,18.50
2019-02-05T11:04:42.242Z,18.90
2019-02-05T11:08:49.273Z,17.03
2019-02-05T11:12:56.511Z,17.87
2019-02-05T11:17:03.502Z,17.33
2019-02-05T11:21:10.300Z,16.30
2019-02-05T11:25:17.327Z,16.97
2019-02-05T11:29:25.364Z,17.37
2019-02-05T11:33:32.304Z,15.23
2019-02-05T11:37:39.484Z,15.77
2019-02-05T11:41:46.898Z,16.37
2019-02-05T11:45:53.707Z,15.20
2019-02-05T11:50:00.803Z,14.57
2019-02-05T11:54:07.796Z,14.67
2019-02-05T11:58:16.833Z,14.33
2019-02-05T12:02:23.782Z,14.73
2019-02-05T12:06:30.677Z,14.50
2019-02-05T12:10:37.765Z,13.43
2019-02-05T12:14:44.758Z,14.37
2019-02-05T12:18:52.131Z,14.27
2019-02-05T12:22:59.021Z,14.20
2019-02-05T12:27:05.978Z,14.37
2019-02-05T12:31:12.855Z,14.57
2019-02-05T12:35:19.735Z,13.23
2019-02-05T12:39:26.686Z,13.50
2019-02-05T12:43:33.639Z,14.80
2019-02-05T12:47:40.711Z,14.20
2019-02-05T12:51:47.635Z,15.50
2019-02-05T12:55:54.874Z,16.43
2019-02-05T13:00:01.666Z,15.07
2019-02-05T13:04:10.283Z,14.00
2019-02-05T13:08:17.124Z,13.80
2019-02-05T13:12:24.368Z,12.53
2019-02-05T13:16:31.573Z,13.33
2019-02-05T13:20:38.587Z,12.97
2019-02-05T13:24:45.476Z,13.83
2019-02-05T13:28:52.347Z,13.93
2019-02-05T13:33:00.976Z,13.60
2019-02-05T13:37:08.974Z,13.60
2019-02-05T13:41:15.859Z,14.13
2019-02-05T13:45:27.754Z,15.67
2019-02-05T13:49:35.208Z,13.37
2019-02-05T13:53:42.162Z,14.90
2019-02-05T13:57:49.521Z,16.07
2019-02-05T14:01:56.339Z,14.10
2019-02-05T14:06:03.201Z,13.63
2019-02-05T14:10:16.197Z,13.80
2019-02-05T14:14:23.209Z,12.00
2019-02-05T14:18:30.235Z,12.37
2019-02-05T14:22:37.155Z,11.87
2019-02-05T14:26:44.114Z,11.63
2019-02-05T14:31:00.730Z,11.73
2019-02-05T14:35:09.899Z,12.10
2019-02-05T14:39:17.136Z,13.40
2019-02-05T14:43:24.061Z,13.50
2019-02-05T14:47:31.156Z,12.57
2019-02-05T14:51:38.939Z,14.20
2019-02-05T14:55:45.871Z,13.47
2019-02-05T14:59:52.818Z,14.07
2019-02-05T15:04:00.051Z,13.47
2019-02-05T15:08:07.536Z,13.20
2019-02-05T15:12:14.478Z,13.10
2019-02-05T15:16:21.368Z,13.03
2019-02-05T15:20:35.416Z,11.73
2019-02-05T15:24:43.305Z,11.23
2019-02-05T15:28:50.908Z,12.13
2019-02-05T15:33:28.512Z,12.00
2019-02-05T15:37:35.450Z,12.87
2019-02-05T15:41:42.620Z,12.47
2019-02-05T15:45:50.059Z,12.23
2019-02-05T15:50:05.950Z,13.43
2019-02-05T15:54:08.461Z,13.47
2019-02-05T15:58:15.387Z,11.90
2019-02-05T16:02:22.301Z,11.97
2019-02-05T16:06:29.750Z,13.67
2019-02-05T16:10:36.933Z,12.70
2019-02-05T16:14:43.873Z,12.03
2019-02-05T16:18:53.337Z,12.77
2019-02-05T16:22:59.772Z,12.90
2019-02-05T16:27:06.827Z,13.70
2019-02-05T16:31:13.815Z,12.83
2019-02-05T16:35:21.503Z,12.13
2019-02-05T16:39:28.989Z,12.67
2019-02-05T16:43:36.099Z,13.60
2019-02-05T16:47:43.423Z,12.17
2019-02-05T16:51:50.645Z,13.20
2019-02-05T16:55:59.191Z,13.40
2019-02-05T17:00:14.289Z,13.83
2019-02-05T17:04:21.314Z,16.33
2019-02-05T17:08:28.296Z,14.20
2019-02-05T17:12:35.480Z,14.73
2019-02-05T17:16:42.693Z,15.33
2019-02-05T17:20:49.866Z,14.57
2019-02-05T17:24:56.899Z,13.83
2019-02-05T17:29:03.995Z,14.20
2019-02-05T17:33:11.050Z,14.80
2019-02-05T17:37:18.228Z,14.70
2019-02-05T17:41:25.059Z,14.87
2019-02-05T17:45:35.131Z,15.67
2019-02-05T17:49:42.119Z,13.97
2019-02-05T17:53:49.130Z,15.67
2019-02-05T17:57:56.283Z,16.40
2019-02-05T18:02:03.384Z,15.63
2019-02-05T18:06:11.053Z,17.20
2019-02-05T18:10:21.351Z,14.73
2019-02-05T18:14:28.690Z,15.20
2019-02-05T18:18:35.645Z,16.10
2019-02-05T18:22:42.844Z,16.37
2019-02-05T18:26:50.771Z,16.47
2019-02-05T18:30:58.313Z,16.33
2019-02-05T18:35:06.594Z,15.97
2019-02-05T18:39:14.256Z,14.97
2019-02-05T18:43:21.321Z,15.77
2019-02-05T18:47:29.125Z,17.00
2019-02-05T18:51:37.984Z,15.37
2019-02-05T18:55:45.386Z,15.87
2019-02-05T18:59:52.629Z,16.13
2019-02-05T19:04:00.026Z,16.47
2019-02-05T19:08:08.466Z,16.23
2019-02-05T19:12:15.725Z,15.57
2019-02-05T19:16:25.470Z,15.57
2019-02-05T19:20:33.686Z,16.50
2019-02-05T19:24:55.598Z,16.97
2019-02-05T19:29:02.942Z,16.90
2019-02-05T19:33:10.462Z,16.20
2019-02-05T19:37:17.982Z,18.20
2019-02-05T19:41:25.251Z,17.77
2019-02-05T19:45:54.283Z,18.33
2019-02-05T19:50:02.696Z,17.63
2019-02-05T19:54:13.283Z,19.53
2019-02-05T19:58:20.563Z,17.73
2019-02-05T20:02:31.681Z,17.57
2019-02-05T20:06:47.039Z,18.97
2019-02-05T20:10:54.207Z,17.60
2019-02-05T20:15:01.462Z,19.53
2019-02-05T20:19:14.830Z,17.07
2019-02-05T20:23:22.422Z,17.93
2019-02-05T20:27:29.696Z,18.63
2019-02-05T20:31:37.115Z,18.13
2019-02-05T20:35:44.434Z,33.93
2019-02-05T20:39:53.978Z,18.77
2019-02-05T20:44:01.055Z,17.77
2019-02-05T20:48:09.666Z,19.33
2019-02-05T20:52:17.207Z,18.27
2019-02-05T20:56:25.512Z,17.57
2019-02-05T21:00:33.200Z,18.00
2019-02-05T21:04:48.014Z,18.67
2019-02-05T21:08:49.320Z,18.17
2019-02-05T21:12:59.020Z,18.17
2019-02-05T21:17:06.643Z,18.47
2019-02-05T21:21:14.367Z,17.57
2019-02-05T21:25:23.791Z,17.10
2019-02-05T21:29:31.331Z,18.03
2019-02-05T21:40:22.493Z,28.87
2019-02-05T21:46:06.761Z,19.47
2019-02-05T21:50:17.232Z,17.67
2019-02-05T21:54:24.530Z,23.37
2019-02-05T21:58:31.727Z,23.37
2019-02-05T22:02:38.976Z,22.17
2019-02-05T22:06:49.552Z,19.27
2019-02-05T22:10:56.868Z,19.40
2019-02-05T22:15:06.463Z,21.73
2019-02-05T22:19:13.693Z,20.67
2019-02-05T22:23:21.109Z,20.07
2019-02-05T22:27:28.398Z,21.57
2019-02-05T22:31:35.586Z,21.50
2019-02-05T22:35:46.276Z,18.30
2019-02-05T22:39:53.755Z,19.67
2019-02-05T22:44:00.882Z,21.53
2019-02-05T22:48:09.519Z,26.60
2019-02-05T22:52:17.938Z,24.23
2019-02-05T22:56:27.711Z,24.70
2019-02-05T23:01:07.747Z,24.30
2019-02-05T23:06:21.872Z,20.40
2019-02-05T23:10:46.326Z,19.90
2019-02-05T23:14:59.097Z,19.53
2019-02-05T23:19:06.724Z,18.57
2019-02-05T23:23:15.984Z,18.63
2019-02-05T23:27:23.268Z,19.00
2019-02-05T23:31:33.151Z,21.30
2019-02-05T23:35:40.184Z,18.87
2019-02-05T23:39:47.374Z,18.57
2019-02-05T23:43:54.331Z,19.67
2019-02-05T23:48:01.213Z,19.70
2019-02-05T23:52:09.202Z,17.73
2019-02-05T23:56:25.427Z,19.33
